Clevedon, United Kingdom
Current Conditions -  °F | °C
As of 11:20 PM on Tuesday 25 Nov 2014 (Local Time) from EGGD Reporting Station
Light Rain Light Rain  
Wind Chill: 35°   Ceiling: 100
Heat Index: 41°   Visibility: 0.21mi
Dew Point: 39°   Wind: 10mph
Humidity: 93%   Direction: 20°NNE
Pressure: 29.97"   Gusts: NA
Location:  51.44°N, 2.86°W
Report Text: EGGD 252320Z 02009KT 0350 R27/0650 -RA FG BKN000 OVC001 05/04 Q1015
Loading
Personal Weather Stations






























Interactive Weather Map New forecast layout! Learn more

10-Day Weather Forecast

Advertisements
Track Severe Weather on mobile